createdAt,value
2017-12-05T00:00:28.362Z,96.98
2017-12-05T00:01:38.825Z,96.88
2017-12-05T00:02:49.097Z,96.98
2017-12-05T00:03:59.121Z,97.17
2017-12-05T00:05:09.265Z,97.07
2017-12-05T00:06:19.236Z,97.07
2017-12-05T00:07:29.332Z,97.07
2017-12-05T00:08:39.735Z,96.88
2017-12-05T00:09:50.051Z,96.69
2017-12-05T00:11:00.318Z,96.69
2017-12-05T00:12:10.229Z,96.69
2017-12-05T00:13:20.619Z,96.79
2017-12-05T00:14:31.944Z,97.07
2017-12-05T00:15:42.217Z,96.79
2017-12-05T00:16:52.498Z,96.88
2017-12-05T00:18:02.799Z,96.98
2017-12-05T00:19:13.125Z,96.79
2017-12-05T00:20:22.919Z,97.17
2017-12-05T00:21:33.388Z,96.69
2017-12-05T00:22:42.859Z,97.27
2017-12-05T00:23:52.766Z,97.07
2017-12-05T00:25:03.058Z,96.79
2017-12-05T00:26:13.332Z,96.98
2017-12-05T00:27:23.882Z,96.88
2017-12-05T00:28:34.154Z,97.17
2017-12-05T00:29:43.866Z,96.88
2017-12-05T00:30:54.157Z,97.36
2017-12-05T00:32:03.893Z,96.5
2017-12-05T00:33:14.211Z,96.6
2017-12-05T00:34:24.279Z,96.88
2017-12-05T00:35:34.420Z,96.79
2017-12-05T00:36:44.358Z,96.79
2017-12-05T00:37:54.644Z,96.88
2017-12-05T00:39:04.771Z,97.07
2017-12-05T00:40:15.035Z,96.88
2017-12-05T00:41:25.337Z,96.88
2017-12-05T00:42:35.702Z,96.88
2017-12-05T00:43:46.021Z,96.79
2017-12-05T00:44:55.963Z,96.6
2017-12-05T00:46:05.714Z,96.6
2017-12-05T00:47:15.804Z,97.36
2017-12-05T00:48:26.060Z,97.07
2017-12-05T00:49:36.333Z,96.88
2017-12-05T00:51:18.226Z,97.07
2017-12-05T00:52:28.172Z,97.07
2017-12-05T00:53:38.243Z,97.45
2017-12-05T00:54:48.526Z,97.36
2017-12-05T00:55:58.810Z,97.74
2017-12-05T00:57:09.177Z,97.55
2017-12-05T00:58:18.899Z,97.36
2017-12-05T00:59:29.163Z,97.27
2017-12-05T01:00:39.545Z,97.74
2017-12-05T01:01:49.905Z,97.74
2017-12-05T01:03:00.280Z,97.5
2017-12-05T01:04:10.579Z,97.74
2017-12-05T01:05:20.860Z,97.6
2017-12-05T01:06:32.133Z,98.07
2017-12-05T01:07:42.442Z,97.45
2017-12-05T01:09:24.305Z,98.26
2017-12-05T01:10:34.760Z,97.83
2017-12-05T01:11:45.068Z,97.78
2017-12-05T01:12:55.390Z,97.69
2017-12-05T01:14:05.406Z,97.69
2017-12-05T01:15:15.434Z,97.5
2017-12-05T01:16:25.434Z,97.78
2017-12-05T01:17:35.664Z,98.07
2017-12-05T01:18:45.938Z,97.6
2017-12-05T01:19:55.838Z,97.69
2017-12-05T01:21:06.187Z,97.69
2017-12-05T01:22:16.446Z,97.6
2017-12-05T01:23:26.706Z,97.41
2017-12-05T01:24:36.342Z,97.6
2017-12-05T01:25:46.690Z,97.6
2017-12-05T01:26:57.009Z,97.5
2017-12-05T01:28:07.103Z,97.03
2017-12-05T01:29:16.502Z,96.74
2017-12-05T01:30:26.794Z,96.93
2017-12-05T01:31:36.715Z,96.84
2017-12-05T01:32:47.060Z,96.93
2017-12-05T01:33:57.369Z,96.65
2017-12-05T01:35:07.612Z,97.12
2017-12-05T01:36:18.168Z,96.93
2017-12-05T01:37:28.538Z,97.03
2017-12-05T01:38:38.534Z,96.93
2017-12-05T01:39:49.047Z,96.93
2017-12-05T01:40:59.307Z,96.93
2017-12-05T01:42:09.826Z,97.03
2017-12-05T01:43:19.897Z,97.03
2017-12-05T01:44:30.589Z,96.55
2017-12-05T01:45:40.849Z,96.45
2017-12-05T01:46:50.839Z,96.36
2017-12-05T01:48:01.113Z,96.45
2017-12-05T01:49:10.835Z,95.89
2017-12-05T01:50:21.117Z,95.89
2017-12-05T01:51:31.430Z,96.26
2017-12-05T01:52:41.434Z,96.26
2017-12-05T01:53:51.702Z,96.17
2017-12-05T01:55:01.446Z,96.26
2017-12-05T01:56:11.752Z,96.17
2017-12-05T01:57:22.283Z,95.98
2017-12-05T01:58:32.352Z,96.26
2017-12-05T01:59:42.623Z,96.26
2017-12-05T02:00:53.183Z,95.89
2017-12-05T02:02:03.280Z,97.03
2017-12-05T02:03:13.545Z,97.12
2017-12-05T02:04:23.944Z,96.93
2017-12-05T02:05:34.445Z,97.12
2017-12-05T02:06:44.391Z,96.84
2017-12-05T02:07:54.684Z,97.22
2017-12-05T02:09:04.952Z,97.31
2017-12-05T02:10:15.263Z,96.84
2017-12-05T02:11:25.327Z,97.12
2017-12-05T02:12:35.639Z,97.03
2017-12-05T02:13:45.910Z,96.84
2017-12-05T02:14:56.213Z,96.93
2017-12-05T02:16:06.550Z,97.41
2017-12-05T02:17:16.580Z,97.12
2017-12-05T02:18:26.597Z,97.31
2017-12-05T02:19:36.599Z,97.69
2017-12-05T02:20:47.199Z,97.5
2017-12-05T02:21:56.949Z,97.6
2017-12-05T02:23:07.271Z,97.69
2017-12-05T02:24:17.540Z,97.41
2017-12-05T02:25:27.862Z,97.5
2017-12-05T02:26:38.013Z,97.22
2017-12-05T02:27:48.603Z,97.88
2017-12-05T02:28:58.611Z,97.97
2017-12-05T02:30:08.927Z,97.41
2017-12-05T02:31:19.237Z,98.55
2017-12-05T02:32:29.456Z,97.88
2017-12-05T02:33:39.772Z,98.55
2017-12-05T02:34:49.681Z,98.55
2017-12-05T02:35:59.976Z,97.97
2017-12-05T02:37:10.245Z,98.36
2017-12-05T02:38:20.143Z,98.55
2017-12-05T02:39:30.414Z,98.64
2017-12-05T02:40:40.429Z,99.11
2017-12-05T02:41:50.093Z,99.21
2017-12-05T02:43:00.431Z,98.17
2017-12-05T02:44:10.470Z,98.26
2017-12-05T02:45:20.464Z,97.97
2017-12-05T02:46:30.755Z,98.36
2017-12-05T02:47:41.020Z,99.11
2017-12-05T02:48:51.416Z,98.36
2017-12-05T02:50:01.773Z,98.74
2017-12-05T02:51:12.073Z,99.02
2017-12-05T02:52:22.080Z,98.83
2017-12-05T02:53:32.070Z,98.64
2017-12-05T02:54:42.611Z,98.45
2017-12-05T02:55:52.680Z,98.64
2017-12-05T02:57:02.760Z,98.64
2017-12-05T02:58:12.547Z,98.64
2017-12-05T02:59:22.925Z,98.45
2017-12-05T03:00:33.218Z,98.64
2017-12-05T03:01:43.521Z,98.64
2017-12-05T03:02:53.852Z,99.11
2017-12-05T03:04:03.661Z,99.21
2017-12-05T03:05:13.918Z,99.3
2017-12-05T03:06:23.937Z,98.74
2017-12-05T03:07:34.176Z,98.83
2017-12-05T03:08:44.060Z,98.74
2017-12-05T03:09:54.439Z,99.5
2017-12-05T03:11:04.753Z,99.21
2017-12-05T03:12:15.014Z,98.83
2017-12-05T03:13:26.235Z,99.21
2017-12-05T03:14:36.483Z,99.02
2017-12-05T03:15:46.478Z,99.21
2017-12-05T03:16:56.850Z,99.21
2017-12-05T03:18:06.892Z,99.02
2017-12-05T03:19:16.872Z,99.5
2017-12-05T03:20:27.139Z,98.64
2017-12-05T03:21:37.726Z,99.21
2017-12-05T03:22:47.976Z,99.21
2017-12-05T03:23:58.267Z,99.3
2017-12-05T03:25:07.998Z,99.02
2017-12-05T03:26:18.280Z,99.4
2017-12-05T03:27:28.441Z,99.3
2017-12-05T03:28:38.690Z,99.4
2017-12-05T03:29:48.944Z,99.78
2017-12-05T03:30:59.235Z,99.78
2017-12-05T03:32:09.701Z,99.88
2017-12-05T03:33:19.622Z,99.78
2017-12-05T03:34:29.888Z,99.78
2017-12-05T03:35:39.953Z,99.97
2017-12-05T03:36:50.249Z,99.99
2017-12-05T03:38:00.242Z,99.78
2017-12-05T03:39:11.103Z,99.88
2017-12-05T03:40:21.359Z,99.69
2017-12-05T03:41:31.643Z,99.97
2017-12-05T03:42:41.510Z,99.88
2017-12-05T03:43:51.545Z,99.88
2017-12-05T03:45:01.794Z,99.99
2017-12-05T03:46:11.851Z,99.99
2017-12-05T03:47:22.478Z,99.88
2017-12-05T03:48:32.775Z,99.88
2017-12-05T03:49:43.154Z,99.99
2017-12-05T03:50:53.464Z,99.99
2017-12-05T03:52:03.578Z,99.99
2017-12-05T03:53:13.858Z,99.99
2017-12-05T03:54:23.892Z,99.99
2017-12-05T03:55:34.215Z,99.99
2017-12-05T03:56:44.105Z,99.88
2017-12-05T03:57:54.240Z,99.99
2017-12-05T03:59:03.962Z,99.99
2017-12-05T04:00:14.166Z,99.99
2017-12-05T04:01:24.445Z,99.99
2017-12-05T04:02:34.456Z,99.99
2017-12-05T04:03:44.719Z,99.99
2017-12-05T04:04:54.990Z,99.99
2017-12-05T04:06:04.981Z,99.99
2017-12-05T04:07:14.998Z,99.99
2017-12-05T04:08:25.230Z,99.99
2017-12-05T04:09:35.551Z,99.99
2017-12-05T04:10:45.581Z,99.99
2017-12-05T04:11:55.485Z,99.99
2017-12-05T04:13:07.232Z,99.99
2017-12-05T04:14:17.518Z,99.99
2017-12-05T04:15:27.534Z,99.99
2017-12-05T04:16:37.855Z,99.97
2017-12-05T04:17:48.164Z,99.99
2017-12-05T04:18:58.591Z,99.99
2017-12-05T04:20:08.665Z,99.99
2017-12-05T04:21:19.084Z,99.99
2017-12-05T04:22:29.070Z,99.99
2017-12-05T04:23:39.161Z,99.97
2017-12-05T04:24:49.471Z,99.99
2017-12-05T04:25:59.817Z,99.99
2017-12-05T04:27:09.880Z,99.99
2017-12-05T04:28:19.877Z,99.99
2017-12-05T04:29:30.160Z,99.99
2017-12-05T04:30:40.189Z,99.99
2017-12-05T04:31:50.649Z,99.88
2017-12-05T04:33:00.754Z,99.69
2017-12-05T04:34:11.073Z,99.99
2017-12-05T04:35:21.357Z,99.99
2017-12-05T04:36:31.609Z,99.99
2017-12-05T04:37:41.292Z,99.99
2017-12-05T04:38:51.784Z,99.99
2017-12-05T04:40:01.856Z,99.99
2017-12-05T04:41:12.196Z,99.99
2017-12-05T04:42:22.504Z,99.99
2017-12-05T04:43:32.492Z,99.99
2017-12-05T04:44:42.986Z,99.99
2017-12-05T04:45:53.217Z,99.99
2017-12-05T04:47:03.469Z,99.99
2017-12-05T04:48:13.772Z,99.99
2017-12-05T04:49:24.113Z,99.99
2017-12-05T04:50:34.386Z,99.99
2017-12-05T04:51:44.925Z,99.84
2017-12-05T04:52:55.189Z,99.84
2017-12-05T04:54:05.079Z,99.93
2017-12-05T04:55:15.086Z,99.99
2017-12-05T04:56:25.120Z,99.99
2017-12-05T04:57:35.389Z,99.88
2017-12-05T04:58:45.645Z,99.84
2017-12-05T04:59:56.007Z,99.84
2017-12-05T05:01:06.528Z,99.84
2017-12-05T05:02:17.014Z,99.84
2017-12-05T05:03:27.412Z,99.84
2017-12-05T05:04:37.665Z,99.64
2017-12-05T05:05:47.938Z,99.99
2017-12-05T05:06:57.979Z,99.99
2017-12-05T05:08:07.978Z,99.99
2017-12-05T05:09:18.235Z,99.99
2017-12-05T05:10:28.514Z,99.99
2017-12-05T05:11:38.809Z,99.99
2017-12-05T05:12:49.699Z,99.99
2017-12-05T05:13:59.992Z,99.99
2017-12-05T05:15:10.009Z,99.99
2017-12-05T05:16:20.363Z,99.99
2017-12-05T05:17:30.384Z,99.99
2017-12-05T05:18:40.649Z,99.99
2017-12-05T05:19:51.026Z,99.99
2017-12-05T05:21:01.192Z,99.99
2017-12-05T05:22:11.544Z,99.99
2017-12-05T05:23:21.575Z,99.99
2017-12-05T05:24:31.976Z,99.99
2017-12-05T05:25:42.246Z,99.99
2017-12-05T05:26:52.445Z,99.99
2017-12-05T05:28:02.701Z,99.99
2017-12-05T05:29:12.991Z,99.99
2017-12-05T05:30:22.994Z,99.99
2017-12-05T05:31:33.385Z,99.99
2017-12-05T05:32:43.700Z,99.99
2017-12-05T05:33:53.818Z,99.99
2017-12-05T05:35:04.124Z,99.99
2017-12-05T05:36:14.511Z,99.99
2017-12-05T05:37:24.879Z,99.99
2017-12-05T05:38:34.863Z,99.99
2017-12-05T05:39:45.258Z,99.99
2017-12-05T05:40:55.246Z,99.99
2017-12-05T05:42:05.560Z,99.99
2017-12-05T05:43:15.845Z,99.99
2017-12-05T05:44:25.867Z,99.99
2017-12-05T05:45:36.169Z,99.99
2017-12-05T05:46:45.925Z,99.99
2017-12-05T05:47:55.836Z,99.99
2017-12-05T05:49:06.124Z,99.99
2017-12-05T05:50:16.400Z,99.99
2017-12-05T05:51:26.446Z,99.99
2017-12-05T05:52:36.484Z,99.99
2017-12-05T05:53:46.747Z,99.99
2017-12-05T05:54:57.059Z,99.99
2017-12-05T05:56:07.351Z,99.99
2017-12-05T05:57:17.647Z,99.99
2017-12-05T05:58:27.433Z,99.99
2017-12-05T05:59:36.822Z,99.99
2017-12-05T06:00:47.157Z,99.99
2017-12-05T06:01:57.509Z,99.99
2017-12-05T06:03:07.506Z,99.99
2017-12-05T06:04:17.637Z,99.99
2017-12-05T06:05:27.928Z,99.99
2017-12-05T06:06:38.069Z,99.99
2017-12-05T06:07:48.075Z,99.99
2017-12-05T06:08:58.367Z,99.99
2017-12-05T06:10:08.432Z,99.99
2017-12-05T06:11:18.929Z,99.99
2017-12-05T06:12:29.198Z,99.99
2017-12-05T06:13:39.485Z,99.99
2017-12-05T06:14:49.741Z,99.99
2017-12-05T06:16:00.825Z,99.99
2017-12-05T06:17:10.558Z,99.99
2017-12-05T06:18:20.833Z,99.99
2017-12-05T06:19:30.865Z,99.99
2017-12-05T06:20:41.157Z,99.99
2017-12-05T06:21:51.421Z,99.99
2017-12-05T06:23:01.717Z,99.99
2017-12-05T06:24:12.002Z,99.99
2017-12-05T06:25:21.984Z,99.99
2017-12-05T06:26:32.260Z,99.99
2017-12-05T06:27:42.296Z,99.99
2017-12-05T06:28:51.946Z,99.99
2017-12-05T06:30:01.971Z,99.99
2017-12-05T06:31:12.038Z,99.99
2017-12-05T06:32:21.778Z,99.99
2017-12-05T06:33:32.139Z,99.99
2017-12-05T06:34:42.463Z,99.99
2017-12-05T06:35:52.128Z,99.99
2017-12-05T06:37:02.446Z,99.99
2017-12-05T06:38:12.471Z,99.99
2017-12-05T06:39:22.514Z,99.99
2017-12-05T06:40:33.011Z,99.99
2017-12-05T06:41:43.284Z,99.99
2017-12-05T06:42:53.558Z,99.99
2017-12-05T06:44:03.829Z,99.99
2017-12-05T06:45:13.852Z,99.99
2017-12-05T06:46:24.151Z,99.99
2017-12-05T06:47:34.420Z,99.99
2017-12-05T06:48:44.730Z,99.99
2017-12-05T06:49:54.742Z,99.99
2017-12-05T06:51:05.029Z,99.99
2017-12-05T06:52:15.335Z,99.99
2017-12-05T06:53:25.351Z,99.99
2017-12-05T06:54:35.610Z,99.99
2017-12-05T06:55:45.870Z,99.99
2017-12-05T06:56:56.109Z,99.99
2017-12-05T06:58:06.445Z,99.99
2017-12-05T06:59:16.483Z,99.99
2017-12-05T07:00:26.775Z,99.99
2017-12-05T07:01:37.157Z,99.99
2017-12-05T07:02:47.202Z,99.99
2017-12-05T07:03:57.457Z,99.99
2017-12-05T07:05:07.742Z,99.99
2017-12-05T07:06:18.005Z,99.99
2017-12-05T07:07:28.278Z,99.99
2017-12-05T07:08:38.637Z,99.84
2017-12-05T07:09:48.997Z,99.99
2017-12-05T07:10:59.299Z,99.74
2017-12-05T07:12:09.555Z,99.99
2017-12-05T07:13:20.226Z,99.99
2017-12-05T07:14:30.513Z,99.64
2017-12-05T07:15:40.628Z,99.93
2017-12-05T07:16:50.908Z,99.93
2017-12-05T07:18:01.205Z,99.93
2017-12-05T07:19:11.698Z,99.99
2017-12-05T07:20:21.697Z,99.93
2017-12-05T07:21:31.989Z,99.93
2017-12-05T07:22:42.255Z,99.93
2017-12-05T07:23:52.640Z,99.99
2017-12-05T07:25:02.960Z,99.84
2017-12-05T07:26:12.961Z,99.84
2017-12-05T07:27:23.260Z,99.55
2017-12-05T07:28:33.300Z,99.84
2017-12-05T07:29:43.586Z,99.93
2017-12-05T07:30:53.860Z,99.93
2017-12-05T07:32:04.233Z,99.84
2017-12-05T07:33:14.518Z,99.84
2017-12-05T07:34:24.734Z,99.45
2017-12-05T07:35:35.446Z,99.26
2017-12-05T07:36:45.983Z,99.07
2017-12-05T07:37:56.365Z,99.16
2017-12-05T07:39:06.649Z,99.07
2017-12-05T07:40:16.929Z,99.45
2017-12-05T07:41:27.206Z,98.79
2017-12-05T07:42:37.543Z,99.07
2017-12-05T07:43:47.915Z,98.6
2017-12-05T07:44:58.191Z,98.79
2017-12-05T07:46:08.473Z,98.88
2017-12-05T07:47:18.781Z,98.79
2017-12-05T07:48:29.067Z,99.07
2017-12-05T07:49:38.867Z,98.69
2017-12-05T07:50:48.631Z,98.97
2017-12-05T07:51:58.767Z,98.69
2017-12-05T07:53:09.096Z,98.97
2017-12-05T07:54:19.410Z,98.6
2017-12-05T07:55:29.718Z,98.41
2017-12-05T07:56:39.975Z,98.31
2017-12-05T07:57:50.277Z,98.6
2017-12-05T07:59:00.589Z,98.69
2017-12-05T08:00:10.870Z,98.03
2017-12-05T08:01:21.173Z,98.12
2017-12-05T08:02:31.177Z,98.22
2017-12-05T08:03:41.442Z,98.03
2017-12-05T08:04:51.718Z,98.22
2017-12-05T08:06:02.031Z,98.22
2017-12-05T08:07:11.974Z,98.41
2017-12-05T08:08:22.240Z,97.74
2017-12-05T08:09:32.381Z,97.93
2017-12-05T08:10:42.438Z,97.74
2017-12-05T08:11:52.780Z,97.64
2017-12-05T08:13:02.993Z,97.55
2017-12-05T08:14:12.941Z,97.55
2017-12-05T08:15:23.227Z,97.74
2017-12-05T08:16:33.738Z,97.83
2017-12-05T08:17:44.002Z,97.55
2017-12-05T08:18:54.279Z,97.55
2017-12-05T08:20:04.123Z,97.36
2017-12-05T08:21:14.476Z,97.55
2017-12-05T08:22:24.496Z,97.55
2017-12-05T08:23:34.542Z,97.64
2017-12-05T08:24:44.723Z,97.55
2017-12-05T08:25:55.015Z,97.55
2017-12-05T08:27:05.330Z,97.45
2017-12-05T08:28:15.655Z,97.36
2017-12-05T08:29:26.218Z,97.74
2017-12-05T08:30:36.519Z,97.55
2017-12-05T08:31:46.844Z,97.55
2017-12-05T08:32:56.854Z,97.45
2017-12-05T08:34:06.900Z,97.55
2017-12-05T08:35:17.244Z,97.55
2017-12-05T08:36:27.522Z,97.64
2017-12-05T08:37:37.676Z,97.74
2017-12-05T08:38:47.852Z,97.55
2017-12-05T08:39:58.169Z,97.93
2017-12-05T08:41:08.703Z,97.74
2017-12-05T08:42:20.008Z,97.27
2017-12-05T08:43:30.260Z,97.45
2017-12-05T08:44:40.646Z,97.36
2017-12-05T08:45:50.918Z,97.55
2017-12-05T08:47:01.242Z,97.45
2017-12-05T08:48:11.245Z,97.36
2017-12-05T08:49:21.331Z,97.36
2017-12-05T08:50:31.620Z,97.74
2017-12-05T08:51:41.642Z,97.74
2017-12-05T08:52:51.926Z,97.36
2017-12-05T08:54:02.199Z,97.45
2017-12-05T08:55:11.953Z,97.45
2017-12-05T08:56:22.210Z,97.45
2017-12-05T08:57:32.495Z,96.89
2017-12-05T08:58:42.622Z,96.79
2017-12-05T08:59:52.339Z,97.55
2017-12-05T09:01:02.599Z,97.17
2017-12-05T09:02:12.597Z,97.08
2017-12-05T09:03:23.052Z,97.17
2017-12-05T09:04:33.352Z,97.45
2017-12-05T09:05:43.206Z,97.17
2017-12-05T09:06:53.679Z,96.98
2017-12-05T09:08:03.445Z,96.79
2017-12-05T09:09:13.825Z,97.27
2017-12-05T09:10:24.083Z,97.45
2017-12-05T09:11:34.377Z,97.45
2017-12-05T09:12:44.668Z,97.08
2017-12-05T09:13:55.123Z,97.17
2017-12-05T09:15:05.428Z,97.36
2017-12-05T09:16:15.494Z,96.79
2017-12-05T09:17:25.809Z,96.98
2017-12-05T09:18:36.104Z,97.17
2017-12-05T09:19:46.379Z,96.89
2017-12-05T09:20:56.380Z,97.17
2017-12-05T09:22:06.687Z,96.98
2017-12-05T09:23:17.221Z,97.17
2017-12-05T09:24:27.206Z,97.17
2017-12-05T09:25:37.483Z,96.69
2017-12-05T09:26:48.027Z,97.17
2017-12-05T09:27:58.366Z,97.45
2017-12-05T09:29:08.530Z,97.27
2017-12-05T09:30:18.886Z,97.27
2017-12-05T09:31:29.175Z,97.36
2017-12-05T09:32:39.228Z,96.98
2017-12-05T09:33:49.014Z,97.17
2017-12-05T09:34:59.275Z,97.17
2017-12-05T09:36:09.613Z,96.79
2017-12-05T09:37:19.669Z,96.98
2017-12-05T09:38:30.150Z,96.98
2017-12-05T09:39:40.154Z,97.17
2017-12-05T09:40:50.690Z,97.17
2017-12-05T09:42:01.010Z,96.22
2017-12-05T09:43:10.686Z,96.12
2017-12-05T09:44:20.995Z,96.12
2017-12-05T09:45:31.303Z,96.31
2017-12-05T09:46:41.688Z,96.22
2017-12-05T09:47:51.960Z,96.12
2017-12-05T09:49:01.974Z,95.94
2017-12-05T09:50:12.037Z,95.46
2017-12-05T09:51:22.315Z,95.84
2017-12-05T09:52:32.592Z,96.36
2017-12-05T09:53:42.587Z,95.7
2017-12-05T09:54:52.502Z,95.6
2017-12-05T09:56:02.797Z,95.89
2017-12-05T09:57:13.111Z,95.75
2017-12-05T09:58:24.073Z,95.41
2017-12-05T09:59:34.323Z,95.03
2017-12-05T10:00:44.580Z,94.74
2017-12-05T10:01:54.663Z,94.74
2017-12-05T10:03:04.933Z,93.89
2017-12-05T10:04:15.250Z,94.27
2017-12-05T10:05:25.536Z,94.08
2017-12-05T10:06:35.847Z,94.65
2017-12-05T10:07:46.138Z,94.37
2017-12-05T10:08:56.140Z,94.27
2017-12-05T10:10:06.410Z,94.27
2017-12-05T10:11:16.683Z,94.56
2017-12-05T10:12:27.060Z,93.89
2017-12-05T10:13:37.178Z,93.89
2017-12-05T10:14:47.237Z,93.79
2017-12-05T10:15:57.240Z,93.98
2017-12-05T10:17:07.572Z,94.08
2017-12-05T10:18:17.998Z,93.98
2017-12-05T10:19:28.279Z,94.18
2017-12-05T10:20:38.569Z,94.27
2017-12-05T10:21:48.705Z,93.32
2017-12-05T10:22:59.164Z,93.41
2017-12-05T10:24:09.436Z,93.41
2017-12-05T10:25:19.705Z,93.6
2017-12-05T10:26:29.744Z,93.13
2017-12-05T10:27:39.385Z,93.04
2017-12-05T10:28:50.666Z,93.41
2017-12-05T10:30:00.667Z,93.13
2017-12-05T10:31:10.671Z,92.75
2017-12-05T10:32:20.994Z,93.13
2017-12-05T10:33:31.258Z,93.04
2017-12-05T10:34:42.502Z,93.04
2017-12-05T10:35:52.542Z,92.84
2017-12-05T10:37:02.826Z,93.6
2017-12-05T10:38:13.111Z,92.94
2017-12-05T10:39:23.414Z,93.6
2017-12-05T10:40:33.719Z,92.94
2017-12-05T10:41:44.113Z,92.94
2017-12-05T10:42:54.393Z,92.94
2017-12-05T10:44:04.103Z,93.51
2017-12-05T10:45:14.431Z,92.94
2017-12-05T10:46:24.699Z,92.94
2017-12-05T10:47:34.704Z,93.13
2017-12-05T10:48:44.788Z,92.75
2017-12-05T10:49:54.800Z,93.32
2017-12-05T10:51:05.086Z,92.94
2017-12-05T10:52:15.385Z,92.84
2017-12-05T10:53:25.778Z,93.04
2017-12-05T10:54:36.338Z,92.94
2017-12-05T10:55:46.357Z,92.94
2017-12-05T10:56:56.358Z,93.23
2017-12-05T10:58:06.649Z,93.13
2017-12-05T10:59:16.706Z,93.13
2017-12-05T11:00:26.727Z,92.94
2017-12-05T11:01:36.980Z,92.84
2017-12-05T11:02:47.251Z,92.94
2017-12-05T11:03:57.530Z,93.23
2017-12-05T11:05:07.429Z,93.32
2017-12-05T11:06:17.708Z,93.23
2017-12-05T11:07:28.105Z,93.41
2017-12-05T11:08:38.406Z,93.32
2017-12-05T11:09:48.708Z,93.41
2017-12-05T11:10:58.965Z,93.13
2017-12-05T11:12:09.263Z,93.32
2017-12-05T11:13:19.574Z,93.46
2017-12-05T11:14:29.851Z,93.08
2017-12-05T11:15:40.172Z,93.32
2017-12-05T11:16:50.490Z,93.41
2017-12-05T11:18:00.785Z,93.51
2017-12-05T11:19:10.824Z,93.32
2017-12-05T11:20:21.118Z,93.13
2017-12-05T11:21:31.606Z,93.51
2017-12-05T11:22:41.873Z,93.23
2017-12-05T11:23:52.235Z,93.32
2017-12-05T11:25:02.515Z,93.32
2017-12-05T11:26:12.804Z,93.41
2017-12-05T11:27:23.076Z,93.41
2017-12-05T11:28:33.491Z,93.13
2017-12-05T11:29:44.745Z,93.41
2017-12-05T11:30:54.844Z,92.46
2017-12-05T11:32:04.944Z,93.04
2017-12-05T11:33:15.503Z,92.65
2017-12-05T11:34:25.835Z,92.36
2017-12-05T11:35:35.841Z,92.56
2017-12-05T11:36:45.904Z,92.65
2017-12-05T11:37:55.917Z,92.36
2017-12-05T11:39:06.184Z,92.08
2017-12-05T11:40:16.287Z,92.08
2017-12-05T11:41:26.559Z,92.27
2017-12-05T11:42:36.850Z,91.99
2017-12-05T11:43:47.143Z,92.27
2017-12-05T11:44:57.496Z,92.27
2017-12-05T11:46:07.794Z,92.08
2017-12-05T11:47:18.115Z,91.89
2017-12-05T11:48:28.175Z,91.51
2017-12-05T11:49:38.451Z,91.99
2017-12-05T11:50:48.197Z,91.51
2017-12-05T11:51:57.836Z,91.42
2017-12-05T11:53:09.065Z,91.89
2017-12-05T11:54:51.274Z,91.7
2017-12-05T11:56:01.567Z,91.42
2017-12-05T11:57:11.931Z,91.89
2017-12-05T11:58:22.194Z,91.8
2017-12-05T11:59:32.456Z,91.89
2017-12-05T12:00:42.381Z,91.7
2017-12-05T12:01:53.468Z,91.51
2017-12-05T12:03:03.784Z,91.99
2017-12-05T12:04:14.313Z,91.61
2017-12-05T12:05:24.417Z,91.51
2017-12-05T12:06:34.429Z,91.7
2017-12-05T12:07:44.796Z,91.61
2017-12-05T12:08:55.105Z,90.84
2017-12-05T12:10:05.435Z,90.84
2017-12-05T12:11:15.467Z,90.94
2017-12-05T12:12:25.493Z,90.94
2017-12-05T12:13:35.842Z,90.94
2017-12-05T12:14:46.256Z,91.61
2017-12-05T12:15:56.569Z,91.03
2017-12-05T12:17:06.590Z,91.03
2017-12-05T12:18:16.593Z,90.75
2017-12-05T12:19:26.887Z,90.84
2017-12-05T12:20:37.169Z,90.94
2017-12-05T12:21:47.480Z,90.75
2017-12-05T12:22:57.882Z,90.37
2017-12-05T12:24:08.135Z,90.66
2017-12-05T12:25:18.527Z,90.75
2017-12-05T12:26:28.484Z,90.37
2017-12-05T12:27:38.445Z,90.84
2017-12-05T12:28:48.741Z,91.13
2017-12-05T12:29:59.043Z,91.03
2017-12-05T12:31:09.071Z,90.84
2017-12-05T12:32:19.325Z,90.47
2017-12-05T12:33:29.058Z,90.75
2017-12-05T12:34:39.462Z,90.66
2017-12-05T12:35:49.746Z,90.37
2017-12-05T12:36:59.124Z,90.56
2017-12-05T12:38:10.055Z,90.37
2017-12-05T12:39:20.160Z,90.75
2017-12-05T12:40:30.641Z,89.89
2017-12-05T12:41:40.915Z,89.89
2017-12-05T12:42:50.918Z,90.08
2017-12-05T12:44:00.921Z,90.47
2017-12-05T12:45:11.225Z,90.56
2017-12-05T12:46:21.251Z,90.47
2017-12-05T12:47:31.663Z,90.66
2017-12-05T12:48:41.978Z,90.84
2017-12-05T12:49:52.543Z,90.66
2017-12-05T12:51:02.888Z,90.66
2017-12-05T12:52:13.416Z,90.56
2017-12-05T12:53:23.718Z,90.66
2017-12-05T12:54:33.780Z,90.56
2017-12-05T12:55:43.795Z,90.47
2017-12-05T12:56:54.119Z,90.56
2017-12-05T12:58:04.127Z,90.37
2017-12-05T12:59:14.417Z,90.84
2017-12-05T13:00:24.750Z,90.75
2017-12-05T13:01:34.827Z,90.47
2017-12-05T13:02:45.907Z,90.56
2017-12-05T13:03:56.230Z,90.66
2017-12-05T13:05:06.356Z,90.28
2017-12-05T13:06:16.771Z,90.47
2017-12-05T13:07:27.390Z,90.84
2017-12-05T13:08:37.922Z,90.56
2017-12-05T13:09:48.260Z,90.66
2017-12-05T13:10:58.562Z,90.56
2017-12-05T13:12:08.833Z,90.84
2017-12-05T13:13:19.135Z,90.47
2017-12-05T13:14:29.199Z,90.66
2017-12-05T13:15:39.515Z,90.37
2017-12-05T13:16:49.926Z,90.37
2017-12-05T13:17:59.567Z,90.66
2017-12-05T13:19:10.079Z,90.28
2017-12-05T13:20:20.399Z,89.51
2017-12-05T13:21:30.838Z,89.7
2017-12-05T13:22:41.136Z,90.08
2017-12-05T13:23:51.476Z,90.37
2017-12-05T13:25:01.750Z,90.28
2017-12-05T13:26:11.762Z,89.7
2017-12-05T13:27:23.051Z,89.51
2017-12-05T13:28:33.567Z,90.28
2017-12-05T13:30:16.059Z,90.75
2017-12-05T13:31:26.370Z,90.75
2017-12-05T13:32:36.270Z,90.18
2017-12-05T13:33:46.522Z,90.28
2017-12-05T13:34:56.297Z,90.08
2017-12-05T13:36:06.385Z,90.18
2017-12-05T13:37:16.161Z,89.8
2017-12-05T13:38:26.446Z,90.28
2017-12-05T13:39:36.468Z,89.89
2017-12-05T13:40:46.752Z,90.66
2017-12-05T13:41:57.016Z,90.28
2017-12-05T13:43:07.039Z,90.28
2017-12-05T13:44:17.330Z,90.28
2017-12-05T13:45:27.377Z,90.37
2017-12-05T13:46:37.414Z,90.75
2017-12-05T13:47:47.497Z,90.37
2017-12-05T13:48:57.828Z,89.99
2017-12-05T13:50:08.098Z,90.37
2017-12-05T13:51:18.581Z,90.08
2017-12-05T13:52:29.068Z,89.8
2017-12-05T13:53:39.372Z,89.8
2017-12-05T13:54:49.737Z,89.89
2017-12-05T13:55:59.848Z,89.89
2017-12-05T13:57:09.869Z,90.08
2017-12-05T13:58:20.137Z,90.08
2017-12-05T13:59:29.808Z,90.08
2017-12-05T14:00:40.137Z,89.7
2017-12-05T14:01:50.429Z,89.99
2017-12-05T14:03:00.193Z,90.37
2017-12-05T14:04:10.026Z,90.08
2017-12-05T14:05:20.315Z,89.89
2017-12-05T14:06:30.411Z,89.7
2017-12-05T14:07:40.982Z,89.8
2017-12-05T14:08:51.289Z,89.89
2017-12-05T14:10:01.603Z,90.18
2017-12-05T14:11:26.406Z,89.51
2017-12-05T14:12:36.826Z,89.89
2017-12-05T14:13:47.368Z,89.8
2017-12-05T14:14:57.808Z,90.08
2017-12-05T14:16:07.730Z,89.89
2017-12-05T14:17:18.179Z,89.89
2017-12-05T14:18:28.470Z,89.8
2017-12-05T14:19:38.776Z,90.08
2017-12-05T14:20:49.033Z,90.18
2017-12-05T14:21:59.319Z,89.89
2017-12-05T14:23:09.824Z,89.89
2017-12-05T14:24:19.775Z,90.08
2017-12-05T14:25:30.243Z,90.08
2017-12-05T14:26:40.568Z,90.28
2017-12-05T14:27:50.783Z,90.75
2017-12-05T14:29:02.048Z,90.56
2017-12-05T14:30:12.450Z,90.37
2017-12-05T14:31:22.103Z,90.37
2017-12-05T14:32:32.156Z,90.56
2017-12-05T14:33:42.499Z,90.66
2017-12-05T14:34:53.114Z,90.66
2017-12-05T14:36:03.414Z,90.75
2017-12-05T14:37:13.720Z,90.66
2017-12-05T14:38:23.965Z,90.84
2017-12-05T14:39:34.346Z,90.84
2017-12-05T14:40:44.634Z,90.75
2017-12-05T14:41:54.936Z,90.75
2017-12-05T14:43:04.962Z,90.66
2017-12-05T14:44:15.259Z,90.84
2017-12-05T14:45:25.297Z,90.75
2017-12-05T14:46:35.683Z,90.94
2017-12-05T14:47:45.699Z,89.99
2017-12-05T14:48:56.070Z,89.89
2017-12-05T14:50:06.383Z,90.94
2017-12-05T14:51:16.688Z,90.84
2017-12-05T14:52:26.724Z,90.84
2017-12-05T14:53:36.711Z,90.94
2017-12-05T14:54:46.842Z,89.61
2017-12-05T14:55:56.968Z,90.37
2017-12-05T14:57:06.956Z,90.47
2017-12-05T14:58:16.980Z,90.84
2017-12-05T14:59:27.260Z,90.28
2017-12-05T15:00:36.990Z,90.28
2017-12-05T15:01:47.174Z,89.99
2017-12-05T15:02:56.966Z,90.37
2017-12-05T15:04:07.297Z,90.08
2017-12-05T15:05:17.034Z,90.08
2017-12-05T15:06:27.428Z,89.7
2017-12-05T15:07:37.730Z,90.08
2017-12-05T15:08:48.003Z,89.89